createdAt,value
2023-02-26T00:01:27.402Z,-0.67
2023-02-26T00:03:58.371Z,-0.65
2023-02-26T00:06:26.988Z,-0.61
2023-02-26T00:08:54.575Z,-0.59
2023-02-26T00:11:22.480Z,-0.50
2023-02-26T00:13:49.475Z,-0.51
2023-02-26T00:16:31.085Z,-0.24
2023-02-26T00:19:01.778Z,-0.25
2023-02-26T00:21:30.141Z,-0.25
2023-02-26T00:23:58.242Z,-0.10
2023-02-26T00:26:27.607Z,-0.24
2023-02-26T00:28:55.532Z,-0.26
2023-02-26T00:31:26.228Z,-0.08
2023-02-26T00:33:55.527Z,-0.43
2023-02-26T00:37:02.912Z,-0.43
2023-02-26T00:40:31.604Z,-0.50
2023-02-26T00:42:58.383Z,-0.57
2023-02-26T00:45:25.394Z,-0.43
2023-02-26T00:48:06.994Z,-0.28
2023-02-26T00:50:35.155Z,-0.27
2023-02-26T00:53:10.378Z,-0.52
2023-02-26T00:55:36.870Z,-0.54
2023-02-26T00:58:03.408Z,-0.73
2023-02-26T01:00:30.279Z,-0.78
2023-02-26T01:02:58.464Z,-0.86
2023-02-26T01:05:25.644Z,-1.16
2023-02-26T01:08:05.337Z,-1.41
2023-02-26T01:10:32.469Z,-1.25
2023-02-26T01:12:59.349Z,-1.61
2023-02-26T01:15:26.333Z,-1.48
2023-02-26T01:18:09.926Z,-1.49
2023-02-26T01:20:46.508Z,-1.42
2023-02-26T01:23:24.283Z,-1.55
2023-02-26T01:25:58.281Z,-1.50
2023-02-26T01:28:26.505Z,-1.48
2023-02-26T01:31:02.472Z,-1.45
2023-02-26T01:34:00.878Z,-1.66
2023-02-26T01:36:37.425Z,-1.65
2023-02-26T01:39:19.484Z,-1.54
2023-02-26T01:42:19.808Z,-1.71
2023-02-26T01:45:01.251Z,-1.64
2023-02-26T01:47:43.051Z,-1.71
2023-02-26T01:50:25.722Z,-1.71
2023-02-26T01:52:52.137Z,-1.81
2023-02-26T01:55:28.624Z,-1.68
2023-02-26T01:58:00.979Z,-1.64
2023-02-26T02:00:28.933Z,-1.75
2023-02-26T02:02:55.701Z,-1.68
2023-02-26T02:05:55.344Z,-1.64
2023-02-26T02:08:22.628Z,-1.64
2023-02-26T02:10:52.870Z,-1.69
2023-02-26T02:13:29.091Z,-1.72
2023-02-26T02:16:26.749Z,-1.81
2023-02-26T02:19:02.177Z,-1.76
2023-02-26T02:21:44.148Z,-1.67
2023-02-26T02:24:52.721Z,-1.70
2023-02-26T02:27:34.074Z,-1.78
2023-02-26T02:30:31.964Z,-1.92
2023-02-26T02:33:06.400Z,-1.92
2023-02-26T02:35:44.660Z,-1.84
2023-02-26T02:38:21.512Z,-1.91
2023-02-26T02:40:58.295Z,-1.97
2023-02-26T02:43:32.388Z,-1.95
2023-02-26T02:46:29.442Z,-1.89
2023-02-26T02:49:04.848Z,-1.89
2023-02-26T02:51:54.275Z,-1.98
2023-02-26T02:54:41.873Z,-1.90
2023-02-26T02:57:19.939Z,-1.95
2023-02-26T02:59:59.258Z,-1.97
2023-02-26T03:02:36.758Z,-1.97
2023-02-26T03:05:03.597Z,-1.93
2023-02-26T03:07:48.433Z,-2.02
2023-02-26T03:10:16.709Z,-2.06
2023-02-26T03:12:43.221Z,-1.94
2023-02-26T03:15:10.968Z,-2.07
2023-02-26T03:18:06.367Z,-2.15
2023-02-26T03:20:45.080Z,-2.04
2023-02-26T03:23:23.355Z,-1.96
2023-02-26T03:26:11.990Z,-2.04
2023-02-26T03:28:48.429Z,-1.97
2023-02-26T03:31:30.679Z,-1.91
2023-02-26T03:34:13.691Z,-1.74
2023-02-26T03:36:51.520Z,-1.71
2023-02-26T03:39:32.012Z,-1.76
2023-02-26T03:42:09.767Z,-1.63
2023-02-26T03:45:09.366Z,-1.57
2023-02-26T03:47:45.630Z,-1.50
2023-02-26T03:50:40.006Z,-1.47
2023-02-26T03:53:13.502Z,-1.83
2023-02-26T03:55:49.200Z,-1.64
2023-02-26T03:58:16.417Z,-1.68
2023-02-26T04:00:50.157Z,-1.64
2023-02-26T04:03:34.460Z,-1.64
2023-02-26T04:06:03.559Z,-1.44
2023-02-26T04:08:32.446Z,-1.38
2023-02-26T04:11:08.904Z,-1.70
2023-02-26T04:13:35.394Z,-1.70
2023-02-26T04:16:02.230Z,-1.64
2023-02-26T04:18:28.731Z,-1.59
2023-02-26T04:20:55.178Z,-1.60
2023-02-26T04:23:21.797Z,-1.65
2023-02-26T04:25:48.354Z,-1.60
2023-02-26T04:28:14.929Z,-1.71
2023-02-26T04:30:41.816Z,-1.54
2023-02-26T04:33:08.300Z,-1.36
2023-02-26T04:35:35.137Z,-1.33
2023-02-26T04:38:01.589Z,-1.27
2023-02-26T04:40:28.076Z,-1.29
2023-02-26T04:42:54.574Z,-1.44
2023-02-26T04:45:21.090Z,-1.26
2023-02-26T04:47:47.567Z,-1.43
2023-02-26T04:50:14.581Z,-1.50
2023-02-26T04:52:41.098Z,-1.61
2023-02-26T04:55:08.547Z,-1.42
2023-02-26T04:57:35.142Z,-1.46
2023-02-26T05:00:01.690Z,-1.48
2023-02-26T05:02:28.226Z,-1.56
2023-02-26T05:04:54.690Z,-1.62
2023-02-26T05:07:21.150Z,-1.66
2023-02-26T05:09:47.599Z,-1.80
2023-02-26T05:12:24.123Z,-1.82
2023-02-26T05:14:50.667Z,-1.99
2023-02-26T05:17:17.142Z,-2.07
2023-02-26T05:19:43.584Z,-2.00
2023-02-26T05:22:10.096Z,-1.96
2023-02-26T05:24:36.648Z,-1.94
2023-02-26T05:27:10.662Z,-2.03
2023-02-26T05:29:46.104Z,-2.04
2023-02-26T05:32:12.548Z,-2.06
2023-02-26T05:34:39.067Z,-2.18
2023-02-26T05:37:05.567Z,-2.38
2023-02-26T05:39:32.171Z,-2.21
2023-02-26T05:41:58.993Z,-1.98
2023-02-26T05:44:25.546Z,-1.82
2023-02-26T05:46:52.116Z,-1.87
2023-02-26T05:49:18.589Z,-1.93
2023-02-26T05:51:45.239Z,-1.90
2023-02-26T05:54:11.822Z,-2.08
2023-02-26T05:56:38.316Z,-2.06
2023-02-26T05:59:05.098Z,-2.13
2023-02-26T06:01:31.646Z,-2.05
2023-02-26T06:04:01.128Z,-1.98
2023-02-26T06:06:27.835Z,-2.00
2023-02-26T06:08:54.551Z,-2.02
2023-02-26T06:11:21.110Z,-2.00
2023-02-26T06:13:47.648Z,-1.86
2023-02-26T06:16:14.267Z,-1.98
2023-02-26T06:18:40.811Z,-2.06
2023-02-26T06:21:07.557Z,-2.10
2023-02-26T06:23:36.940Z,-2.03
2023-02-26T06:26:05.045Z,-1.91
2023-02-26T06:28:32.708Z,-1.90
2023-02-26T06:30:59.218Z,-1.83
2023-02-26T06:33:30.879Z,-1.62
2023-02-26T06:35:59.253Z,-1.54
2023-02-26T06:38:27.075Z,-1.56
2023-02-26T06:40:53.650Z,-1.71
2023-02-26T06:43:20.496Z,-1.88
2023-02-26T06:45:47.425Z,-1.93
2023-02-26T06:48:14.046Z,-1.96
2023-02-26T06:50:40.549Z,-1.99
2023-02-26T06:53:09.343Z,-2.11
2023-02-26T06:55:35.829Z,-2.18
2023-02-26T06:58:02.326Z,-2.37
2023-02-26T07:00:28.821Z,-2.40
2023-02-26T07:02:55.480Z,-2.35
2023-02-26T07:05:22.249Z,-2.18
2023-02-26T07:07:48.752Z,-2.24
2023-02-26T07:10:18.299Z,-2.47
2023-02-26T07:12:44.858Z,-2.38
2023-02-26T07:15:14.633Z,-2.32
2023-02-26T07:17:41.171Z,-2.25
2023-02-26T07:20:10.221Z,-2.33
2023-02-26T07:22:38.248Z,-2.29
2023-02-26T07:25:07.126Z,-2.28
2023-02-26T07:27:34.024Z,-2.14
2023-02-26T07:30:01.330Z,-2.27
2023-02-26T07:32:28.197Z,-2.24
2023-02-26T07:34:54.696Z,-2.57
2023-02-26T07:37:21.264Z,-2.52
2023-02-26T07:39:49.577Z,-2.25
2023-02-26T07:42:16.478Z,-2.19
2023-02-26T07:44:43.352Z,-2.04
2023-02-26T07:47:10.942Z,-2.00
2023-02-26T07:49:37.484Z,-2.31
2023-02-26T07:52:20.509Z,-2.22
2023-02-26T07:54:55.926Z,-2.07
2023-02-26T07:57:36.785Z,-1.96
2023-02-26T08:00:06.497Z,-1.99
2023-02-26T08:02:34.131Z,-2.17
2023-02-26T08:05:03.624Z,-2.04
2023-02-26T08:07:30.133Z,-2.00
2023-02-26T08:09:56.653Z,-2.08
2023-02-26T08:12:23.120Z,-1.94
2023-02-26T08:14:49.602Z,-1.95
2023-02-26T08:17:16.134Z,-1.84
2023-02-26T08:19:48.304Z,-1.85
2023-02-26T08:22:14.733Z,-1.68
2023-02-26T08:24:41.431Z,-1.50
2023-02-26T08:27:08.074Z,-1.37
2023-02-26T08:29:34.581Z,-1.27
2023-02-26T08:32:01.100Z,-1.32
2023-02-26T08:34:27.663Z,-1.27
2023-02-26T08:36:54.183Z,-1.30
2023-02-26T08:39:20.666Z,-1.33
2023-02-26T08:41:47.137Z,-1.32
2023-02-26T08:44:13.624Z,-1.18
2023-02-26T08:46:40.312Z,-1.12
2023-02-26T08:49:07.370Z,-1.27
2023-02-26T08:51:33.850Z,-1.21
2023-02-26T08:54:00.426Z,-0.90
2023-02-26T08:56:27.284Z,-1.15
2023-02-26T08:58:53.923Z,-1.13
2023-02-26T09:01:20.401Z,-1.04
2023-02-26T09:03:46.941Z,-0.95
2023-02-26T09:06:13.464Z,-0.80
2023-02-26T09:08:39.986Z,-0.48
2023-02-26T09:11:06.577Z,-0.67
2023-02-26T09:13:33.091Z,-0.41
2023-02-26T09:15:59.585Z,-0.37
2023-02-26T09:18:26.181Z,-0.74
2023-02-26T09:20:52.702Z,-0.92
2023-02-26T09:23:19.234Z,-0.91
2023-02-26T09:25:46.135Z,-0.85
2023-02-26T09:28:12.749Z,-0.74
2023-02-26T09:30:39.335Z,-0.85
2023-02-26T09:33:05.892Z,-0.87
2023-02-26T09:35:32.430Z,-0.78
2023-02-26T09:37:58.991Z,-0.58
2023-02-26T09:41:00.273Z,-0.45
2023-02-26T09:44:25.548Z,-0.75
2023-02-26T09:47:17.734Z,-0.62
2023-02-26T09:50:07.190Z,0.24
2023-02-26T09:52:46.911Z,-0.06
2023-02-26T09:55:31.331Z,-0.34
2023-02-26T09:58:04.969Z,-0.24
2023-02-26T10:00:58.589Z,-0.23
2023-02-26T10:03:57.330Z,-0.13
2023-02-26T10:06:34.901Z,-0.01
2023-02-26T10:09:32.776Z,-0.02
2023-02-26T10:12:10.551Z,0.44
2023-02-26T10:14:56.678Z,0.26
2023-02-26T10:17:42.180Z,0.44
2023-02-26T10:20:32.533Z,0.68
2023-02-26T10:23:19.941Z,0.97
2023-02-26T10:25:53.899Z,0.86
2023-02-26T10:29:02.622Z,0.49
2023-02-26T10:31:59.384Z,0.41
2023-02-26T10:34:42.056Z,0.39
2023-02-26T10:37:38.865Z,0.33
2023-02-26T10:40:14.446Z,0.50
2023-02-26T10:43:00.845Z,0.57
2023-02-26T10:45:58.507Z,0.75
2023-02-26T10:48:39.032Z,0.65
2023-02-26T10:51:15.635Z,0.80
2023-02-26T10:53:46.271Z,0.74
2023-02-26T10:56:22.470Z,1.25
2023-02-26T10:58:50.709Z,1.47
2023-02-26T11:01:20.785Z,1.64
2023-02-26T11:03:54.473Z,1.51
2023-02-26T11:06:31.548Z,1.26
2023-02-26T11:09:02.352Z,1.28
2023-02-26T11:11:50.879Z,1.37
2023-02-26T11:14:17.757Z,1.65
2023-02-26T11:16:53.477Z,1.71
2023-02-26T11:19:35.477Z,1.70
2023-02-26T11:22:05.352Z,1.91
2023-02-26T11:24:40.385Z,2.09
2023-02-26T11:27:19.723Z,2.19
2023-02-26T11:29:57.140Z,2.27
2023-02-26T11:32:33.125Z,2.06
2023-02-26T11:34:59.701Z,2.08
2023-02-26T11:37:38.908Z,1.74
2023-02-26T11:40:37.946Z,1.99
2023-02-26T11:43:23.587Z,2.11
2023-02-26T11:46:05.517Z,2.16
2023-02-26T11:48:40.895Z,1.99
2023-02-26T11:51:14.260Z,2.13
2023-02-26T11:54:01.365Z,2.52
2023-02-26T11:56:50.871Z,2.25
2023-02-26T11:59:24.285Z,2.19
2023-02-26T12:01:53.477Z,2.02
2023-02-26T12:04:27.936Z,1.49
2023-02-26T12:06:56.290Z,1.58
2023-02-26T12:09:26.387Z,1.40
2023-02-26T12:12:16.232Z,1.73
2023-02-26T12:15:13.981Z,1.25
2023-02-26T12:18:07.064Z,1.37
2023-02-26T12:20:58.141Z,1.53
2023-02-26T12:23:51.876Z,1.39
2023-02-26T12:26:31.718Z,1.39
2023-02-26T12:29:47.190Z,1.67
2023-02-26T12:32:44.463Z,1.77
2023-02-26T12:35:37.778Z,2.08
2023-02-26T12:38:22.766Z,1.46
2023-02-26T12:41:25.087Z,1.00
2023-02-26T12:44:11.312Z,1.22
2023-02-26T12:47:10.909Z,1.12
2023-02-26T12:50:07.044Z,1.45
2023-02-26T12:53:11.322Z,1.21
2023-02-26T12:55:53.234Z,1.27
2023-02-26T12:58:53.727Z,1.36
2023-02-26T13:02:01.409Z,1.40
2023-02-26T13:05:04.574Z,1.70
2023-02-26T13:07:58.659Z,1.88
2023-02-26T13:10:43.195Z,1.99
2023-02-26T13:13:35.814Z,2.05
2023-02-26T13:16:21.646Z,2.03
2023-02-26T13:19:13.371Z,1.99
2023-02-26T13:21:48.754Z,2.08
2023-02-26T13:26:59.057Z,2.26
2023-02-26T13:29:35.653Z,2.36
2023-02-26T13:32:14.006Z,2.46
2023-02-26T13:35:33.344Z,2.45
2023-02-26T13:38:07.281Z,2.34
2023-02-26T13:40:58.335Z,2.41
2023-02-26T13:43:57.552Z,2.37
2023-02-26T13:46:46.420Z,2.50
2023-02-26T13:49:34.535Z,2.91
2023-02-26T13:52:01.385Z,2.84
2023-02-26T13:54:27.902Z,2.69
2023-02-26T13:57:06.941Z,2.75
2023-02-26T13:59:45.287Z,2.86
2023-02-26T14:02:18.071Z,2.96
2023-02-26T14:04:59.574Z,2.27
2023-02-26T14:07:55.881Z,2.26
2023-02-26T14:10:33.202Z,2.26
2023-02-26T14:13:15.258Z,2.34
2023-02-26T14:16:13.274Z,2.38
2023-02-26T14:18:39.685Z,2.75
2023-02-26T14:21:28.090Z,2.41
2023-02-26T14:24:02.086Z,1.98
2023-02-26T14:26:36.802Z,1.72
2023-02-26T14:29:06.400Z,1.71
2023-02-26T14:31:51.129Z,1.74
2023-02-26T14:34:29.753Z,1.68
2023-02-26T14:37:06.946Z,1.92
2023-02-26T14:39:42.993Z,1.96
2023-02-26T14:42:21.406Z,2.27
2023-02-26T14:45:18.712Z,2.37
2023-02-26T14:47:48.484Z,2.43
2023-02-26T14:50:20.990Z,2.34
2023-02-26T14:53:24.089Z,2.19
2023-02-26T14:56:04.615Z,1.87
2023-02-26T14:58:48.840Z,1.91
2023-02-26T15:01:30.363Z,1.97
2023-02-26T15:04:16.964Z,2.01
2023-02-26T15:06:52.476Z,2.01
2023-02-26T15:10:04.213Z,1.96
2023-02-26T15:13:00.169Z,2.07
2023-02-26T15:16:11.856Z,1.92
2023-02-26T15:19:15.532Z,1.88
2023-02-26T15:22:11.956Z,1.99
2023-02-26T15:24:40.562Z,2.15
2023-02-26T15:27:15.243Z,2.10
2023-02-26T15:29:42.807Z,1.78
2023-02-26T15:32:26.465Z,2.21
2023-02-26T15:35:03.395Z,2.19
2023-02-26T15:37:35.385Z,2.19
2023-02-26T15:40:05.759Z,1.91
2023-02-26T15:42:39.051Z,2.27
2023-02-26T15:45:35.814Z,2.06
2023-02-26T15:48:07.986Z,2.04
2023-02-26T15:50:43.334Z,1.86
2023-02-26T15:53:19.295Z,1.72
2023-02-26T15:55:53.589Z,1.66
2023-02-26T15:58:34.080Z,1.47
2023-02-26T16:01:03.040Z,1.43
2023-02-26T16:03:38.491Z,1.33
2023-02-26T16:06:11.237Z,1.54
2023-02-26T16:08:38.928Z,1.24
2023-02-26T16:11:06.190Z,1.17
2023-02-26T16:13:37.730Z,1.21
2023-02-26T16:16:12.654Z,1.15
2023-02-26T16:18:41.403Z,1.16
2023-02-26T16:21:16.797Z,1.17
2023-02-26T16:23:50.946Z,1.21
2023-02-26T16:26:33.567Z,1.07
2023-02-26T16:29:27.822Z,1.09
2023-02-26T16:31:58.667Z,1.31
2023-02-26T16:34:44.159Z,1.11
2023-02-26T16:37:28.713Z,1.04
2023-02-26T16:40:08.959Z,0.80
2023-02-26T16:42:50.863Z,0.78
2023-02-26T16:45:37.585Z,0.82
2023-02-26T16:48:15.531Z,0.44
2023-02-26T16:50:42.680Z,0.57
2023-02-26T16:53:18.688Z,0.50
2023-02-26T16:55:55.529Z,0.31
2023-02-26T16:58:24.718Z,0.40
2023-02-26T17:01:04.376Z,0.34
2023-02-26T17:03:31.223Z,0.34
2023-02-26T17:06:08.150Z,0.34
2023-02-26T17:08:46.079Z,0.26
2023-02-26T17:11:30.584Z,0.13
2023-02-26T17:14:15.393Z,0.18
2023-02-26T17:16:41.939Z,0.18
2023-02-26T17:19:09.394Z,-0.21
2023-02-26T17:21:44.384Z,-0.15
2023-02-26T17:24:20.423Z,-0.09
2023-02-26T17:26:48.227Z,-0.01
2023-02-26T17:29:27.616Z,-0.11
2023-02-26T17:31:54.164Z,-0.13
2023-02-26T17:34:22.181Z,-0.09
2023-02-26T17:36:49.753Z,-0.03
2023-02-26T17:39:16.529Z,-0.05
2023-02-26T17:41:44.868Z,-0.05
2023-02-26T17:44:11.685Z,-0.08
2023-02-26T17:46:38.315Z,-0.13
2023-02-26T17:49:04.975Z,-0.14
2023-02-26T17:51:31.585Z,-0.08
2023-02-26T17:53:58.407Z,-0.15
2023-02-26T17:56:32.662Z,-0.28
2023-02-26T17:59:01.046Z,-0.30
2023-02-26T18:01:30.747Z,-0.25
2023-02-26T18:03:57.819Z,-0.37
2023-02-26T18:06:25.313Z,-0.37
2023-02-26T18:08:52.213Z,-0.43
2023-02-26T18:11:20.318Z,-0.50
2023-02-26T18:13:47.387Z,-0.44
2023-02-26T18:16:23.002Z,-0.47
2023-02-26T18:18:50.665Z,-0.52
2023-02-26T18:21:17.210Z,-0.50
2023-02-26T18:23:43.706Z,-0.59
2023-02-26T18:26:11.390Z,-0.62
2023-02-26T18:28:37.948Z,-0.69
2023-02-26T18:31:08.655Z,-0.67
2023-02-26T18:33:38.490Z,-0.76
2023-02-26T18:36:05.989Z,-0.79
2023-02-26T18:38:32.691Z,-0.80
2023-02-26T18:41:01.814Z,-0.81
2023-02-26T18:43:29.380Z,-0.95
2023-02-26T18:45:57.160Z,-0.97
2023-02-26T18:48:23.772Z,-0.91
2023-02-26T18:50:50.395Z,-0.88
2023-02-26T18:53:17.587Z,-0.87
2023-02-26T18:55:44.777Z,-0.96
2023-02-26T18:58:11.610Z,-1.02
2023-02-26T19:00:38.137Z,-1.11
2023-02-26T19:03:04.687Z,-1.19
2023-02-26T19:05:31.340Z,-1.25
2023-02-26T19:07:57.988Z,-1.34
2023-02-26T19:10:24.620Z,-1.30
2023-02-26T19:12:51.203Z,-1.26
2023-02-26T19:15:18.422Z,-1.30
2023-02-26T19:17:45.214Z,-1.38
2023-02-26T19:20:13.514Z,-1.37
2023-02-26T19:22:41.783Z,-1.35
2023-02-26T19:25:10.053Z,-1.41
2023-02-26T19:27:37.951Z,-1.46
2023-02-26T19:30:06.454Z,-1.56
2023-02-26T19:32:33.434Z,-1.65
2023-02-26T19:35:00.202Z,-1.73
2023-02-26T19:37:27.017Z,-1.75
2023-02-26T19:39:53.491Z,-1.83
2023-02-26T19:42:20.308Z,-2.06
2023-02-26T19:44:46.814Z,-2.11
2023-02-26T19:47:13.353Z,-2.12
2023-02-26T19:49:39.859Z,-2.12
2023-02-26T19:52:08.132Z,-2.26
2023-02-26T19:54:34.639Z,-2.24
2023-02-26T19:57:01.242Z,-2.39
2023-02-26T19:59:28.114Z,-2.32
2023-02-26T20:01:54.760Z,-2.35
2023-02-26T20:04:21.425Z,-2.43
2023-02-26T20:06:47.947Z,-2.51
2023-02-26T20:09:14.615Z,-2.42
2023-02-26T20:11:41.271Z,-2.46
2023-02-26T20:14:08.045Z,-2.33
2023-02-26T20:16:34.787Z,-2.20
2023-02-26T20:19:01.719Z,-2.24
2023-02-26T20:21:28.587Z,-2.25
2023-02-26T20:23:56.672Z,-2.14
2023-02-26T20:26:23.916Z,-2.03
2023-02-26T20:28:50.408Z,-2.03
2023-02-26T20:31:17.313Z,-1.93
2023-02-26T20:33:43.956Z,-1.80
2023-02-26T20:36:11.162Z,-1.78
2023-02-26T20:38:37.963Z,-1.78
2023-02-26T20:41:05.143Z,-1.64
2023-02-26T20:43:32.683Z,-1.61
2023-02-26T20:45:59.317Z,-1.58
2023-02-26T20:48:26.419Z,-1.67
2023-02-26T20:50:57.902Z,-1.63
2023-02-26T20:53:24.410Z,-1.57
2023-02-26T20:55:50.952Z,-1.56
2023-02-26T20:58:17.433Z,-1.61
2023-02-26T21:00:43.979Z,-1.61
2023-02-26T21:03:10.650Z,-1.54
2023-02-26T21:05:38.441Z,-1.50
2023-02-26T21:08:05.649Z,-1.48
2023-02-26T21:10:32.731Z,-1.58
2023-02-26T21:12:59.748Z,-1.75
2023-02-26T21:15:26.543Z,-1.80
2023-02-26T21:17:53.811Z,-1.90
2023-02-26T21:20:22.063Z,-1.98
2023-02-26T21:22:49.570Z,-2.09
2023-02-26T21:25:17.015Z,-2.19
2023-02-26T21:27:43.937Z,-2.28
2023-02-26T21:30:12.858Z,-2.28
2023-02-26T21:32:40.471Z,-2.26
2023-02-26T21:35:11.944Z,-2.27
2023-02-26T21:37:38.971Z,-2.42
2023-02-26T21:40:06.574Z,-2.53
2023-02-26T21:42:33.396Z,-2.55
2023-02-26T21:44:59.894Z,-2.47
2023-02-26T21:47:26.454Z,-2.51
2023-02-26T21:49:53.594Z,-2.49
2023-02-26T21:52:20.111Z,-2.49
2023-02-26T21:54:46.607Z,-2.44
2023-02-26T21:57:13.074Z,-2.47
2023-02-26T21:59:39.580Z,-2.57
2023-02-26T22:02:06.162Z,-2.62
2023-02-26T22:04:33.790Z,-2.76
2023-02-26T22:07:00.623Z,-2.86
2023-02-26T22:09:27.330Z,-2.88
2023-02-26T22:11:53.837Z,-2.90
2023-02-26T22:14:20.373Z,-2.84
2023-02-26T22:16:47.199Z,-2.86
2023-02-26T22:19:13.742Z,-2.82
2023-02-26T22:21:40.269Z,-2.87
2023-02-26T22:24:07.477Z,-2.89
2023-02-26T22:26:34.129Z,-2.98
2023-02-26T22:29:00.940Z,-2.99
2023-02-26T22:31:29.640Z,-3.03
2023-02-26T22:33:57.316Z,-3.12
2023-02-26T22:36:25.556Z,-3.05
2023-02-26T22:38:52.108Z,-2.98
2023-02-26T22:41:18.848Z,-2.95
2023-02-26T22:43:45.292Z,-2.95
2023-02-26T22:46:11.907Z,-2.95
2023-02-26T22:48:38.428Z,-2.90
2023-02-26T22:51:05.255Z,-2.93
2023-02-26T22:53:31.823Z,-3.09
2023-02-26T22:55:58.444Z,-3.14
2023-02-26T22:58:25.000Z,-3.25
2023-02-26T23:01:02.557Z,-3.40
2023-02-26T23:03:29.532Z,-3.34
2023-02-26T23:05:57.285Z,-3.29
2023-02-26T23:08:25.645Z,-3.24
2023-02-26T23:10:58.331Z,-3.21
2023-02-26T23:13:27.084Z,-3.19
2023-02-26T23:15:53.620Z,-3.41
2023-02-26T23:18:20.108Z,-3.48
2023-02-26T23:20:48.418Z,-3.51
2023-02-26T23:23:16.214Z,-3.51
2023-02-26T23:25:43.925Z,-3.55
2023-02-26T23:28:11.854Z,-3.59
2023-02-26T23:30:39.437Z,-3.59
2023-02-26T23:33:07.171Z,-3.52
2023-02-26T23:35:44.860Z,-3.53
2023-02-26T23:38:11.740Z,-3.55
2023-02-26T23:40:38.220Z,-3.62
2023-02-26T23:43:04.732Z,-3.63
2023-02-26T23:45:31.326Z,-3.68
2023-02-26T23:47:57.809Z,-3.75
2023-02-26T23:50:24.360Z,-3.76
2023-02-26T23:52:50.996Z,-3.89
2023-02-26T23:55:23.148Z,-3.89
2023-02-26T23:57:52.237Z,-3.93
